createdAt,value
2022-11-24T00:01:17.679Z,91.28
2022-11-24T00:02:49.353Z,91.36
2022-11-24T00:04:21.075Z,91.63
2022-11-24T00:05:52.595Z,91.38
2022-11-24T00:07:24.226Z,91.80
2022-11-24T00:08:56.591Z,91.72
2022-11-24T00:10:28.130Z,92.46
2022-11-24T00:12:01.304Z,92.29
2022-11-24T00:13:33.612Z,92.22
2022-11-24T00:15:05.556Z,91.21
2022-11-24T00:16:38.559Z,91.58
2022-11-24T00:18:10.140Z,91.52
2022-11-24T00:19:42.000Z,91.53
2022-11-24T00:21:15.565Z,92.15
2022-11-24T00:22:47.155Z,92.26
2022-11-24T00:24:18.846Z,92.13
2022-11-24T00:25:50.354Z,92.30
2022-11-24T00:27:21.949Z,92.23
2022-11-24T00:28:55.614Z,91.49
2022-11-24T00:30:27.212Z,91.82
2022-11-24T00:31:58.806Z,91.55
2022-11-24T00:33:30.690Z,91.26
2022-11-24T00:35:02.213Z,90.92
2022-11-24T00:36:35.679Z,90.05
2022-11-24T00:38:08.844Z,89.15
2022-11-24T00:39:40.400Z,88.91
2022-11-24T00:41:12.763Z,87.73
2022-11-24T00:42:44.299Z,87.84
2022-11-24T00:44:15.888Z,88.28
2022-11-24T00:45:47.479Z,88.76
2022-11-24T00:47:19.216Z,89.21
2022-11-24T00:48:51.448Z,89.75
2022-11-24T00:50:23.079Z,90.47
2022-11-24T00:51:54.702Z,90.84
2022-11-24T00:53:26.664Z,90.71
2022-11-24T00:54:58.246Z,90.45
2022-11-24T00:56:30.416Z,90.34
2022-11-24T00:58:02.017Z,90.81
2022-11-24T00:59:33.631Z,90.94
2022-11-24T01:01:20.867Z,91.38
2022-11-24T01:02:52.945Z,91.24
2022-11-24T01:04:24.679Z,91.72
2022-11-24T01:05:56.415Z,91.80
2022-11-24T01:07:27.986Z,92.13
2022-11-24T01:08:59.836Z,92.43
2022-11-24T01:10:32.283Z,92.31
2022-11-24T01:12:04.363Z,92.94
2022-11-24T01:13:36.093Z,92.47
2022-11-24T01:15:08.006Z,92.69
2022-11-24T01:16:39.608Z,92.15
2022-11-24T01:18:11.160Z,92.68
2022-11-24T01:19:42.704Z,92.46
2022-11-24T01:21:15.308Z,92.86
2022-11-24T01:22:48.671Z,93.18
2022-11-24T01:24:20.345Z,92.94
2022-11-24T01:25:51.907Z,92.64
2022-11-24T01:27:23.473Z,92.59
2022-11-24T01:28:57.561Z,92.33
2022-11-24T01:30:29.129Z,92.61
2022-11-24T01:32:00.759Z,93.11
2022-11-24T01:33:33.682Z,92.89
2022-11-24T01:35:06.770Z,92.75
2022-11-24T01:36:38.398Z,92.60
2022-11-24T01:38:09.913Z,92.41
2022-11-24T01:39:41.451Z,92.53
2022-11-24T01:41:25.209Z,92.61
2022-11-24T01:42:56.792Z,92.45
2022-11-24T01:44:30.403Z,92.30
2022-11-24T01:46:30.310Z,92.29
2022-11-24T01:48:05.683Z,92.21
2022-11-24T01:49:42.958Z,92.32
2022-11-24T01:51:19.521Z,92.11
2022-11-24T01:52:55.256Z,92.31
2022-11-24T01:54:39.785Z,92.09
2022-11-24T01:56:13.401Z,92.23
2022-11-24T01:57:53.462Z,92.44
2022-11-24T01:59:25.865Z,92.25
2022-11-24T02:00:57.520Z,92.11
2022-11-24T02:02:30.072Z,91.46
2022-11-24T02:04:04.982Z,91.85
2022-11-24T02:05:52.579Z,92.00
2022-11-24T02:07:25.090Z,92.36
2022-11-24T02:09:02.680Z,92.24
2022-11-24T02:10:34.233Z,92.33
2022-11-24T02:12:06.297Z,92.75
2022-11-24T02:13:39.902Z,92.29
2022-11-24T02:15:11.967Z,92.39
2022-11-24T02:16:49.059Z,92.08
2022-11-24T02:18:20.786Z,91.69
2022-11-24T02:19:58.463Z,91.63
2022-11-24T02:21:30.070Z,92.08
2022-11-24T02:23:13.273Z,92.38
2022-11-24T02:25:08.720Z,92.30
2022-11-24T02:26:47.082Z,92.75
2022-11-24T02:28:22.066Z,92.53
2022-11-24T02:29:53.662Z,92.94
2022-11-24T02:31:25.553Z,93.41
2022-11-24T02:32:57.259Z,93.34
2022-11-24T02:34:28.861Z,93.58
2022-11-24T02:36:00.445Z,93.55
2022-11-24T02:37:31.988Z,93.69
2022-11-24T02:39:03.794Z,93.70
2022-11-24T02:40:35.536Z,93.88
2022-11-24T02:42:11.491Z,94.24
2022-11-24T02:43:46.139Z,94.25
2022-11-24T02:45:17.967Z,94.30
2022-11-24T02:46:49.539Z,94.30
2022-11-24T02:48:21.051Z,94.47
2022-11-24T02:49:52.639Z,94.18
2022-11-24T02:51:24.315Z,94.23
2022-11-24T02:52:55.872Z,94.16
2022-11-24T02:54:27.873Z,94.08
2022-11-24T02:55:59.437Z,94.14
2022-11-24T02:57:31.430Z,94.23
2022-11-24T02:59:02.998Z,94.13
2022-11-24T03:00:34.541Z,94.45
2022-11-24T03:02:06.348Z,94.38
2022-11-24T03:03:38.225Z,94.78
2022-11-24T03:05:12.010Z,94.70
2022-11-24T03:06:43.926Z,94.69
2022-11-24T03:08:15.683Z,94.86
2022-11-24T03:09:47.218Z,94.40
2022-11-24T03:11:18.714Z,94.68
2022-11-24T03:12:50.368Z,95.20
2022-11-24T03:14:21.935Z,94.93
2022-11-24T03:15:53.624Z,94.89
2022-11-24T03:17:25.183Z,94.99
2022-11-24T03:18:56.702Z,94.79
2022-11-24T03:20:28.573Z,94.73
2022-11-24T03:22:00.109Z,94.61
2022-11-24T03:23:31.699Z,95.02
2022-11-24T03:25:03.719Z,94.87
2022-11-24T03:26:35.623Z,94.98
2022-11-24T03:28:07.158Z,95.02
2022-11-24T03:29:38.696Z,95.00
2022-11-24T03:31:11.156Z,95.18
2022-11-24T03:32:42.821Z,95.16
2022-11-24T03:34:14.343Z,95.44
2022-11-24T03:35:45.895Z,95.29
2022-11-24T03:37:17.572Z,95.63
2022-11-24T03:38:49.753Z,95.06
2022-11-24T03:40:21.336Z,95.26
2022-11-24T03:41:52.889Z,95.44
2022-11-24T03:43:24.469Z,95.34
2022-11-24T03:44:56.001Z,95.70
2022-11-24T03:46:27.735Z,95.60
2022-11-24T03:47:59.316Z,95.74
2022-11-24T03:49:30.924Z,95.63
2022-11-24T03:51:03.285Z,95.38
2022-11-24T03:52:34.781Z,95.33
2022-11-24T03:54:06.773Z,95.38
2022-11-24T03:55:38.293Z,95.29
2022-11-24T03:57:09.942Z,95.27
2022-11-24T03:58:41.443Z,95.22
2022-11-24T04:00:13.411Z,95.39
2022-11-24T04:01:45.472Z,95.44
2022-11-24T04:03:17.187Z,95.17
2022-11-24T04:04:50.641Z,95.29
2022-11-24T04:06:22.294Z,95.57
2022-11-24T04:07:57.596Z,94.96
2022-11-24T04:09:29.239Z,95.56
2022-11-24T04:11:00.972Z,95.28
2022-11-24T04:12:44.810Z,95.62
2022-11-24T04:14:16.455Z,95.47
2022-11-24T04:15:48.301Z,95.48
2022-11-24T04:17:19.910Z,95.61
2022-11-24T04:18:54.544Z,95.50
2022-11-24T04:20:26.061Z,95.53
2022-11-24T04:21:57.608Z,95.44
2022-11-24T04:23:29.240Z,95.83
2022-11-24T04:25:00.796Z,95.55
2022-11-24T04:26:32.325Z,95.70
2022-11-24T04:28:04.252Z,95.27
2022-11-24T04:29:35.880Z,95.60
2022-11-24T04:31:07.499Z,95.68
2022-11-24T04:32:39.094Z,95.62
2022-11-24T04:34:11.458Z,95.90
2022-11-24T04:35:43.033Z,95.86
2022-11-24T04:37:14.689Z,95.60
2022-11-24T04:39:25.819Z,95.56
2022-11-24T04:40:38.162Z,95.78
2022-11-24T04:42:09.779Z,95.58
2022-11-24T04:43:41.357Z,95.40
2022-11-24T04:45:12.903Z,95.31
2022-11-24T04:46:44.612Z,94.57
2022-11-24T04:48:16.176Z,94.46
2022-11-24T04:49:49.113Z,94.24
2022-11-24T04:51:20.746Z,94.10
2022-11-24T04:52:52.641Z,94.58
2022-11-24T04:54:24.318Z,94.59
2022-11-24T04:55:55.839Z,95.00
2022-11-24T04:57:27.781Z,95.20
2022-11-24T04:59:03.846Z,95.26
2022-11-24T05:00:39.632Z,95.51
2022-11-24T05:02:11.729Z,95.36
2022-11-24T05:03:43.297Z,95.19
2022-11-24T05:05:14.906Z,94.76
2022-11-24T05:06:46.752Z,95.19
2022-11-24T05:08:18.317Z,95.34
2022-11-24T05:10:08.201Z,95.43
2022-11-24T05:11:39.726Z,95.38
2022-11-24T05:13:12.708Z,95.49
2022-11-24T05:14:44.346Z,95.54
2022-11-24T05:16:16.028Z,95.41
2022-11-24T05:17:47.717Z,95.43
2022-11-24T05:19:19.439Z,95.23
2022-11-24T05:20:51.039Z,95.16
2022-11-24T05:22:22.625Z,94.81
2022-11-24T05:23:54.195Z,94.89
2022-11-24T05:25:25.778Z,94.41
2022-11-24T05:26:57.313Z,94.63
2022-11-24T05:28:29.277Z,94.49
2022-11-24T05:30:00.812Z,94.62
2022-11-24T05:31:32.406Z,94.72
2022-11-24T05:33:09.559Z,94.77
2022-11-24T05:34:41.276Z,94.58
2022-11-24T05:36:31.470Z,94.37
2022-11-24T05:38:04.213Z,94.48
2022-11-24T05:39:36.329Z,94.52
2022-11-24T05:41:07.989Z,94.16
2022-11-24T05:42:47.208Z,94.60
2022-11-24T05:44:19.717Z,94.75
2022-11-24T05:45:51.259Z,94.74
2022-11-24T05:47:23.288Z,94.55
2022-11-24T05:48:55.027Z,94.84
2022-11-24T05:50:26.587Z,94.91
2022-11-24T05:51:58.208Z,95.27
2022-11-24T05:53:29.736Z,95.36
2022-11-24T05:55:01.545Z,95.22
2022-11-24T05:56:33.172Z,95.26
2022-11-24T05:58:07.373Z,95.45
2022-11-24T05:59:39.310Z,95.30
2022-11-24T06:01:10.900Z,95.11
2022-11-24T06:02:42.656Z,95.35
2022-11-24T06:04:14.392Z,95.17
2022-11-24T06:05:47.232Z,95.17
2022-11-24T06:07:19.265Z,94.98
2022-11-24T06:08:50.842Z,94.69
2022-11-24T06:10:24.043Z,94.46
2022-11-24T06:11:56.295Z,94.51
2022-11-24T06:13:28.068Z,94.24
2022-11-24T06:14:59.869Z,94.35
2022-11-24T06:16:31.504Z,94.26
2022-11-24T06:18:03.386Z,94.43
2022-11-24T06:19:38.710Z,94.48
2022-11-24T06:21:13.476Z,94.21
2022-11-24T06:22:45.118Z,94.33
2022-11-24T06:24:16.765Z,95.00
2022-11-24T06:25:51.509Z,94.95
2022-11-24T06:27:23.813Z,94.82
2022-11-24T06:28:55.438Z,94.27
2022-11-24T06:30:27.029Z,94.27
2022-11-24T06:31:58.829Z,93.97
2022-11-24T06:33:35.032Z,94.52
2022-11-24T06:35:06.668Z,93.96
2022-11-24T06:36:38.895Z,94.29
2022-11-24T06:38:10.836Z,93.66
2022-11-24T06:39:42.649Z,93.69
2022-11-24T06:41:16.276Z,93.14
2022-11-24T06:42:52.598Z,93.35
2022-11-24T06:44:24.490Z,92.99
2022-11-24T06:45:57.215Z,93.29
2022-11-24T06:47:28.880Z,93.40
2022-11-24T06:49:00.618Z,93.68
2022-11-24T06:50:33.691Z,93.72
2022-11-24T06:52:05.574Z,93.63
2022-11-24T06:53:38.796Z,93.54
2022-11-24T06:55:10.360Z,93.61
2022-11-24T06:56:41.887Z,93.59
2022-11-24T06:58:13.451Z,93.37
2022-11-24T06:59:45.011Z,93.30
2022-11-24T07:01:22.073Z,93.43
2022-11-24T07:02:53.767Z,93.23
2022-11-24T07:04:25.320Z,93.54
2022-11-24T07:05:58.222Z,93.79
2022-11-24T07:07:29.785Z,93.46
2022-11-24T07:09:01.535Z,93.49
2022-11-24T07:10:33.892Z,93.60
2022-11-24T07:12:06.041Z,93.48
2022-11-24T07:13:37.741Z,93.33
2022-11-24T07:15:10.088Z,93.54
2022-11-24T07:16:42.149Z,93.48
2022-11-24T07:18:13.718Z,93.27
2022-11-24T07:19:45.348Z,93.40
2022-11-24T07:21:17.618Z,93.48
2022-11-24T07:22:49.259Z,93.50
2022-11-24T07:24:23.532Z,93.12
2022-11-24T07:25:55.138Z,93.31
2022-11-24T07:27:27.571Z,93.29
2022-11-24T07:28:59.145Z,92.67
2022-11-24T07:30:31.208Z,93.00
2022-11-24T07:32:05.716Z,93.18
2022-11-24T07:33:38.116Z,93.36
2022-11-24T07:35:09.702Z,93.26
2022-11-24T07:36:42.089Z,93.12
2022-11-24T07:38:13.668Z,92.85
2022-11-24T07:39:45.286Z,92.78
2022-11-24T07:41:19.698Z,92.86
2022-11-24T07:42:51.438Z,93.06
2022-11-24T07:44:22.999Z,93.31
2022-11-24T07:45:55.173Z,93.45
2022-11-24T07:47:26.700Z,93.41
2022-11-24T07:48:58.380Z,93.07
2022-11-24T07:50:30.041Z,93.39
2022-11-24T07:52:01.856Z,93.12
2022-11-24T07:53:34.241Z,93.15
2022-11-24T07:55:06.585Z,92.97
2022-11-24T07:56:38.192Z,93.21
2022-11-24T07:58:09.933Z,92.95
2022-11-24T07:59:41.500Z,92.57
2022-11-24T08:01:15.973Z,92.73
2022-11-24T08:02:47.607Z,92.73
2022-11-24T08:04:19.260Z,92.66
2022-11-24T08:07:50.151Z,92.38
2022-11-24T08:09:21.856Z,92.48
2022-11-24T08:10:53.477Z,92.75
2022-11-24T08:12:25.059Z,92.30
2022-11-24T08:13:56.893Z,92.39
2022-11-24T08:15:28.618Z,92.53
2022-11-24T08:17:00.296Z,93.22
2022-11-24T08:18:32.195Z,93.34
2022-11-24T08:20:04.204Z,93.46
2022-11-24T08:21:35.775Z,93.14
2022-11-24T08:23:07.501Z,93.36
2022-11-24T08:24:40.971Z,93.13
2022-11-24T08:26:16.727Z,93.61
2022-11-24T08:27:48.395Z,93.66
2022-11-24T08:29:20.098Z,93.81
2022-11-24T08:30:51.927Z,93.65
2022-11-24T08:32:23.656Z,93.53
2022-11-24T08:33:55.930Z,93.63
2022-11-24T08:35:28.613Z,93.77
2022-11-24T08:37:00.214Z,93.59
2022-11-24T08:38:31.889Z,93.20
2022-11-24T08:40:04.347Z,93.12
2022-11-24T08:41:36.061Z,92.64
2022-11-24T08:43:07.920Z,92.59
2022-11-24T08:44:39.600Z,92.26
2022-11-24T08:46:14.465Z,92.17
2022-11-24T08:47:46.163Z,91.99
2022-11-24T08:49:18.937Z,91.07
2022-11-24T08:50:50.563Z,91.61
2022-11-24T08:52:22.233Z,90.84
2022-11-24T08:53:55.891Z,90.32
2022-11-24T08:55:27.481Z,89.97
2022-11-24T08:56:59.042Z,88.82
2022-11-24T08:58:31.432Z,87.81
2022-11-24T09:00:04.981Z,87.50
2022-11-24T09:01:36.649Z,87.08
2022-11-24T09:03:11.197Z,87.18
2022-11-24T09:04:44.292Z,87.83
2022-11-24T09:06:24.856Z,87.94
2022-11-24T09:07:56.480Z,88.62
2022-11-24T09:09:28.259Z,88.22
2022-11-24T09:11:05.763Z,88.51
2022-11-24T09:12:37.406Z,88.44
2022-11-24T09:14:09.078Z,88.50
2022-11-24T09:15:40.776Z,88.60
2022-11-24T09:17:12.844Z,87.83
2022-11-24T09:18:45.285Z,88.38
2022-11-24T09:20:17.007Z,87.90
2022-11-24T09:21:48.907Z,86.98
2022-11-24T09:23:20.579Z,87.53
2022-11-24T09:24:52.289Z,87.32
2022-11-24T09:26:29.439Z,86.33
2022-11-24T09:28:01.098Z,85.73
2022-11-24T09:29:32.951Z,85.50
2022-11-24T09:31:06.537Z,86.25
2022-11-24T09:32:38.143Z,86.83
2022-11-24T09:34:13.837Z,87.71
2022-11-24T09:35:45.477Z,88.04
2022-11-24T09:37:18.260Z,87.13
2022-11-24T09:38:49.975Z,87.50
2022-11-24T09:40:22.610Z,87.73
2022-11-24T09:42:14.648Z,86.09
2022-11-24T09:43:52.042Z,84.67
2022-11-24T09:45:49.390Z,83.78
2022-11-24T09:47:37.125Z,84.81
2022-11-24T09:49:16.575Z,85.18
2022-11-24T09:50:49.757Z,85.71
2022-11-24T09:52:37.609Z,86.20
2022-11-24T09:54:36.554Z,86.25
2022-11-24T09:56:26.143Z,84.40
2022-11-24T09:58:36.102Z,82.88
2022-11-24T10:00:15.035Z,82.01
2022-11-24T10:01:48.098Z,80.96
2022-11-24T10:03:44.217Z,82.11
2022-11-24T10:05:16.215Z,80.51
2022-11-24T10:07:00.244Z,81.06
2022-11-24T10:08:38.616Z,81.37
2022-11-24T10:10:24.259Z,81.91
2022-11-24T10:11:57.602Z,82.07
2022-11-24T10:13:41.365Z,82.37
2022-11-24T10:15:16.066Z,81.50
2022-11-24T10:16:53.859Z,79.86
2022-11-24T10:18:40.645Z,79.02
2022-11-24T10:20:21.445Z,77.69
2022-11-24T10:22:22.661Z,77.99
2022-11-24T10:23:57.226Z,77.57
2022-11-24T10:25:59.157Z,77.95
2022-11-24T10:27:37.450Z,76.46
2022-11-24T10:29:40.002Z,76.03
2022-11-24T10:31:23.588Z,77.19
2022-11-24T10:32:58.258Z,78.13
2022-11-24T10:34:34.497Z,77.17
2022-11-24T10:36:19.843Z,77.29
2022-11-24T10:37:57.763Z,75.49
2022-11-24T10:39:58.657Z,75.62
2022-11-24T10:41:53.087Z,77.34
2022-11-24T10:43:28.614Z,77.60
2022-11-24T10:45:10.641Z,77.90
2022-11-24T10:46:42.507Z,77.47
2022-11-24T10:48:40.418Z,78.48
2022-11-24T10:50:24.030Z,77.64
2022-11-24T10:52:16.508Z,78.33
2022-11-24T10:53:48.882Z,77.62
2022-11-24T10:55:21.700Z,77.57
2022-11-24T10:56:55.542Z,77.51
2022-11-24T10:58:37.665Z,76.04
2022-11-24T11:00:19.194Z,73.17
2022-11-24T11:01:52.747Z,73.72
2022-11-24T11:03:32.947Z,74.13
2022-11-24T11:05:28.154Z,74.39
2022-11-24T11:07:19.999Z,73.87
2022-11-24T11:09:22.026Z,74.03
2022-11-24T11:11:22.043Z,73.04
2022-11-24T11:12:53.703Z,73.23
2022-11-24T11:14:31.525Z,74.07
2022-11-24T11:16:22.702Z,73.47
2022-11-24T11:17:58.703Z,72.71
2022-11-24T11:19:53.152Z,71.66
2022-11-24T11:21:37.421Z,70.64
2022-11-24T11:23:21.379Z,69.70
2022-11-24T11:25:18.010Z,71.82
2022-11-24T11:27:17.338Z,73.33
2022-11-24T11:31:18.061Z,75.12
2022-11-24T11:34:44.597Z,74.13
2022-11-24T11:36:16.436Z,72.58
2022-11-24T11:37:49.593Z,72.09
2022-11-24T11:39:35.390Z,72.03
2022-11-24T11:41:17.066Z,72.89
2022-11-24T11:43:03.777Z,73.41
2022-11-24T11:44:41.907Z,73.68
2022-11-24T11:46:18.280Z,74.00
2022-11-24T11:47:52.773Z,74.30
2022-11-24T11:49:24.961Z,74.71
2022-11-24T11:51:22.845Z,70.60
2022-11-24T11:53:04.194Z,68.53
2022-11-24T11:54:58.526Z,69.20
2022-11-24T11:56:33.727Z,68.79
2022-11-24T11:58:14.395Z,68.99
2022-11-24T12:00:02.612Z,69.28
2022-11-24T12:01:42.196Z,69.02
2022-11-24T12:03:49.696Z,68.85
2022-11-24T12:05:40.146Z,69.05
2022-11-24T12:07:42.348Z,69.29
2022-11-24T12:09:29.000Z,67.94
2022-11-24T12:11:09.799Z,67.21
2022-11-24T12:12:59.544Z,67.23
2022-11-24T12:15:12.401Z,67.83
2022-11-24T12:16:47.791Z,67.30
2022-11-24T12:18:57.239Z,68.02
2022-11-24T12:20:47.716Z,66.01
2022-11-24T12:22:48.418Z,65.20
2022-11-24T12:24:40.244Z,66.20
2022-11-24T12:26:26.823Z,66.98
2022-11-24T12:28:19.674Z,66.23
2022-11-24T12:30:00.130Z,66.18
2022-11-24T12:32:15.989Z,64.37
2022-11-24T12:34:16.142Z,62.21
2022-11-24T12:35:56.037Z,62.16
2022-11-24T12:37:40.339Z,62.44
2022-11-24T12:39:26.038Z,62.37
2022-11-24T12:41:45.114Z,62.87
2022-11-24T12:43:29.640Z,63.63
2022-11-24T12:45:13.032Z,63.72
2022-11-24T12:47:06.760Z,64.53
2022-11-24T12:48:57.493Z,63.72
2022-11-24T12:50:34.911Z,64.03
2022-11-24T12:52:13.194Z,64.63
2022-11-24T12:53:48.105Z,64.55
2022-11-24T12:55:23.655Z,63.83
2022-11-24T12:57:21.411Z,62.32
2022-11-24T12:59:16.125Z,63.31
2022-11-24T13:01:05.857Z,62.89
2022-11-24T13:02:41.374Z,62.98
2022-11-24T13:04:42.353Z,63.10
2022-11-24T13:06:19.316Z,63.36
2022-11-24T13:08:00.315Z,64.24
2022-11-24T13:09:31.948Z,63.63
2022-11-24T13:11:21.835Z,64.73
2022-11-24T13:12:57.456Z,65.15
2022-11-24T13:14:32.976Z,64.98
2022-11-24T13:18:43.198Z,65.33
2022-11-24T13:20:21.002Z,65.17
2022-11-24T13:22:08.202Z,65.52
2022-11-24T13:23:40.469Z,65.25
2022-11-24T13:25:14.844Z,63.61
2022-11-24T13:26:49.353Z,62.83
2022-11-24T13:29:13.447Z,62.12
2022-11-24T13:31:10.152Z,62.34
2022-11-24T13:32:42.047Z,63.39
2022-11-24T13:34:40.259Z,63.60
2022-11-24T13:36:12.358Z,62.64
2022-11-24T13:37:45.377Z,64.30
2022-11-24T13:39:21.281Z,64.21
2022-11-24T13:41:20.998Z,63.96
2022-11-24T13:43:03.202Z,64.20
2022-11-24T13:44:51.824Z,65.46
2022-11-24T13:47:15.840Z,66.07
2022-11-24T13:48:48.091Z,65.68
2022-11-24T13:50:21.529Z,66.68
2022-11-24T13:51:58.426Z,67.65
2022-11-24T13:53:41.414Z,68.40
2022-11-24T13:55:13.351Z,66.40
2022-11-24T13:56:45.237Z,67.69
2022-11-24T13:58:46.853Z,66.36
2022-11-24T14:00:24.541Z,65.53
2022-11-24T14:01:58.675Z,65.63
2022-11-24T14:03:35.158Z,65.96
2022-11-24T14:05:07.044Z,67.65
2022-11-24T14:06:55.256Z,68.23
2022-11-24T14:08:30.950Z,67.81
2022-11-24T14:10:02.855Z,68.39
2022-11-24T14:11:34.507Z,66.34
2022-11-24T14:13:21.264Z,67.72
2022-11-24T14:14:57.307Z,67.49
2022-11-24T14:16:28.995Z,66.54
2022-11-24T14:18:00.649Z,64.06
2022-11-24T14:19:32.444Z,64.42
2022-11-24T14:21:40.482Z,64.45
2022-11-24T14:23:12.997Z,64.97
2022-11-24T14:24:47.067Z,64.07
2022-11-24T14:26:39.767Z,64.84
2022-11-24T14:28:28.559Z,64.27
2022-11-24T14:30:15.530Z,63.32
2022-11-24T14:31:55.439Z,63.47
2022-11-24T14:33:27.094Z,63.55
2022-11-24T14:34:58.818Z,63.66
2022-11-24T14:36:30.521Z,64.19
2022-11-24T14:38:04.290Z,64.01
2022-11-24T14:39:41.310Z,63.10
2022-11-24T14:41:25.999Z,63.59
2022-11-24T14:42:57.650Z,63.46
2022-11-24T14:44:43.463Z,63.83
2022-11-24T14:46:19.748Z,63.80
2022-11-24T14:47:51.333Z,63.67
2022-11-24T14:49:23.736Z,64.13
2022-11-24T14:51:11.165Z,63.62
2022-11-24T14:52:52.465Z,64.41
2022-11-24T14:54:24.886Z,65.52
2022-11-24T14:56:29.090Z,66.74
2022-11-24T14:58:01.105Z,67.56
2022-11-24T14:59:36.299Z,68.49
2022-11-24T15:01:21.530Z,69.90
2022-11-24T15:02:56.138Z,69.68
2022-11-24T15:05:00.790Z,70.54
2022-11-24T15:06:21.695Z,70.87
2022-11-24T15:08:02.767Z,70.90
2022-11-24T15:09:49.169Z,70.67
2022-11-24T15:11:21.165Z,71.56
2022-11-24T15:12:57.242Z,72.16
2022-11-24T15:14:51.418Z,71.74
2022-11-24T15:16:26.246Z,72.28
2022-11-24T15:18:00.349Z,71.51
2022-11-24T15:19:35.415Z,72.56
2022-11-24T15:21:07.093Z,72.97
2022-11-24T15:22:42.089Z,72.87
2022-11-24T15:24:19.245Z,73.38
2022-11-24T15:25:54.497Z,73.87
2022-11-24T15:27:26.013Z,73.17
2022-11-24T15:28:57.604Z,73.24
2022-11-24T15:30:29.514Z,73.63
2022-11-24T15:32:01.157Z,74.34
2022-11-24T15:33:32.869Z,75.17
2022-11-24T15:35:04.880Z,74.73
2022-11-24T15:36:36.430Z,74.67
2022-11-24T15:38:08.080Z,74.39
2022-11-24T15:39:39.695Z,74.18
2022-11-24T15:41:19.618Z,74.26
2022-11-24T15:42:53.588Z,74.29
2022-11-24T15:44:25.327Z,74.83
2022-11-24T15:45:58.500Z,75.18
2022-11-24T15:47:30.174Z,75.64
2022-11-24T15:49:01.801Z,76.18
2022-11-24T15:50:35.232Z,77.47
2022-11-24T15:52:06.944Z,77.57
2022-11-24T15:53:46.581Z,78.04
2022-11-24T15:55:21.217Z,78.62
2022-11-24T15:56:52.875Z,78.86
2022-11-24T15:58:24.642Z,77.77
2022-11-24T15:59:56.206Z,79.01
2022-11-24T16:01:33.243Z,79.08
2022-11-24T16:03:38.258Z,79.78
2022-11-24T16:04:56.473Z,80.03
2022-11-24T16:06:28.060Z,80.64
2022-11-24T16:07:59.690Z,80.00
2022-11-24T16:09:31.333Z,80.43
2022-11-24T16:11:02.979Z,81.12
2022-11-24T16:12:34.525Z,82.03
2022-11-24T16:14:06.178Z,81.37
2022-11-24T16:15:38.124Z,82.05
2022-11-24T16:17:10.063Z,82.47
2022-11-24T16:18:41.772Z,82.90
2022-11-24T16:20:13.464Z,82.32
2022-11-24T16:21:47.925Z,82.83
2022-11-24T16:23:20.485Z,81.91
2022-11-24T16:24:52.072Z,82.59
2022-11-24T16:26:23.654Z,81.70
2022-11-24T16:28:01.488Z,81.62
2022-11-24T16:29:38.167Z,82.90
2022-11-24T16:31:10.272Z,83.28
2022-11-24T16:32:41.869Z,83.84
2022-11-24T16:34:14.965Z,83.71
2022-11-24T16:35:48.330Z,83.70
2022-11-24T16:37:21.696Z,83.21
2022-11-24T16:38:53.317Z,84.10
2022-11-24T16:40:25.219Z,84.13
2022-11-24T16:41:56.850Z,84.61
2022-11-24T16:43:29.148Z,84.78
2022-11-24T16:45:00.782Z,85.32
2022-11-24T16:46:32.361Z,85.22
2022-11-24T16:48:04.132Z,85.63
2022-11-24T16:49:35.696Z,85.25
2022-11-24T16:51:08.826Z,85.38
2022-11-24T16:52:40.559Z,85.39
2022-11-24T16:54:12.369Z,86.60
2022-11-24T16:55:44.015Z,85.59
2022-11-24T16:57:15.920Z,85.93
2022-11-24T16:58:47.717Z,86.43
2022-11-24T17:00:19.557Z,86.99
2022-11-24T17:01:51.421Z,86.48
2022-11-24T17:03:23.013Z,86.31
2022-11-24T17:04:54.644Z,86.01
2022-11-24T17:06:26.976Z,86.56
2022-11-24T17:07:58.613Z,87.34
2022-11-24T17:09:30.266Z,87.37
2022-11-24T17:11:13.937Z,86.95
2022-11-24T17:12:45.502Z,87.22
2022-11-24T17:14:17.150Z,87.83
2022-11-24T17:15:53.980Z,88.47
2022-11-24T17:17:26.164Z,88.24
2022-11-24T17:18:58.759Z,87.96
2022-11-24T17:20:31.522Z,87.77
2022-11-24T17:22:03.107Z,88.26
2022-11-24T17:23:34.779Z,88.05
2022-11-24T17:25:08.648Z,88.07
2022-11-24T17:26:43.478Z,88.54
2022-11-24T17:28:17.888Z,88.03
2022-11-24T17:29:49.477Z,89.11
2022-11-24T17:31:27.286Z,88.75
2022-11-24T17:32:58.957Z,88.78
2022-11-24T17:34:30.666Z,88.67
2022-11-24T17:36:04.687Z,88.69
2022-11-24T17:37:37.053Z,89.26
2022-11-24T17:39:09.470Z,88.69
2022-11-24T17:40:46.550Z,89.20
2022-11-24T17:42:18.148Z,89.04
2022-11-24T17:43:50.847Z,89.34
2022-11-24T17:45:22.455Z,89.43
2022-11-24T17:46:54.258Z,89.46
2022-11-24T17:48:25.966Z,88.97
2022-11-24T17:49:57.628Z,89.67
2022-11-24T17:51:29.316Z,89.91
2022-11-24T17:53:01.022Z,89.82
2022-11-24T17:54:56.520Z,90.31
2022-11-24T17:56:27.120Z,90.32
2022-11-24T17:57:58.792Z,89.79
2022-11-24T17:59:30.459Z,90.17
2022-11-24T18:01:02.155Z,90.27
2022-11-24T18:02:33.886Z,90.42
2022-11-24T18:04:05.639Z,89.76
2022-11-24T18:05:37.819Z,89.44
2022-11-24T18:07:09.519Z,89.21
2022-11-24T18:08:46.569Z,89.45
2022-11-24T18:10:18.281Z,88.71
2022-11-24T18:11:51.989Z,89.27
2022-11-24T18:13:54.524Z,88.97
2022-11-24T18:15:15.261Z,89.47
2022-11-24T18:16:46.869Z,89.23
2022-11-24T18:18:18.501Z,89.04
2022-11-24T18:19:50.153Z,89.50
2022-11-24T18:21:21.792Z,89.70
2022-11-24T18:23:08.800Z,89.83
2022-11-24T18:24:40.571Z,89.63
2022-11-24T18:26:15.017Z,89.67
2022-11-24T18:27:46.747Z,89.59
2022-11-24T18:29:18.353Z,89.58
2022-11-24T18:30:50.447Z,89.44
2022-11-24T18:32:22.042Z,89.33
2022-11-24T18:33:53.647Z,89.97
2022-11-24T18:35:25.197Z,89.56
2022-11-24T18:36:56.769Z,90.17
2022-11-24T18:38:28.501Z,90.11
2022-11-24T18:40:00.342Z,89.92
2022-11-24T18:41:32.405Z,89.97
2022-11-24T18:43:04.133Z,89.76
2022-11-24T18:44:36.766Z,90.11
2022-11-24T18:46:15.049Z,90.27
2022-11-24T18:47:46.660Z,90.11
2022-11-24T18:49:18.305Z,90.07
2022-11-24T18:50:55.064Z,89.63
2022-11-24T18:52:26.660Z,90.00
2022-11-24T18:53:58.422Z,90.19
2022-11-24T18:55:30.043Z,90.30
2022-11-24T18:57:03.444Z,90.81
2022-11-24T18:58:35.949Z,90.68
2022-11-24T19:00:08.172Z,91.05
2022-11-24T19:01:39.809Z,91.19
2022-11-24T19:03:11.435Z,91.66
2022-11-24T19:04:43.011Z,92.12
2022-11-24T19:06:17.736Z,92.14
2022-11-24T19:07:49.347Z,92.08
2022-11-24T19:09:22.689Z,92.04
2022-11-24T19:10:54.354Z,91.50
2022-11-24T19:12:25.955Z,91.84
2022-11-24T19:13:57.905Z,91.92
2022-11-24T19:15:35.979Z,91.66
2022-11-24T19:17:07.694Z,92.38
2022-11-24T19:18:39.439Z,91.89
2022-11-24T19:20:11.583Z,91.72
2022-11-24T19:21:45.768Z,92.08
2022-11-24T19:23:18.650Z,91.87
2022-11-24T19:24:50.848Z,91.53
2022-11-24T19:26:22.802Z,91.01
2022-11-24T19:27:54.453Z,90.82
2022-11-24T19:29:25.999Z,90.05
2022-11-24T19:31:05.483Z,89.29
2022-11-24T19:32:37.092Z,89.95
2022-11-24T19:34:08.816Z,90.01
2022-11-24T19:35:40.397Z,90.32
2022-11-24T19:37:12.040Z,90.24
2022-11-24T19:38:50.324Z,90.89
2022-11-24T19:40:22.020Z,90.96
2022-11-24T19:41:53.638Z,90.78
2022-11-24T19:43:25.281Z,90.71
2022-11-24T19:44:57.024Z,90.89
2022-11-24T19:46:30.138Z,90.61
2022-11-24T19:48:01.807Z,90.92
2022-11-24T19:49:33.474Z,90.93
2022-11-24T19:51:07.776Z,90.93
2022-11-24T19:52:39.470Z,91.14
2022-11-24T19:54:13.396Z,91.34
2022-11-24T19:55:45.002Z,91.91
2022-11-24T19:57:16.634Z,91.69
2022-11-24T19:58:49.506Z,91.82
2022-11-24T20:00:21.301Z,91.87
2022-11-24T20:01:54.153Z,92.06
2022-11-24T20:03:25.827Z,92.34
2022-11-24T20:04:57.503Z,92.38
2022-11-24T20:06:33.001Z,92.31
2022-11-24T20:08:04.956Z,92.64
2022-11-24T20:09:36.492Z,92.90
2022-11-24T20:11:11.133Z,93.04
2022-11-24T20:12:42.764Z,93.06
2022-11-24T20:14:16.355Z,93.00
2022-11-24T20:15:47.962Z,93.34
2022-11-24T20:17:20.397Z,93.18
2022-11-24T20:18:54.815Z,92.91
2022-11-24T20:20:26.411Z,93.09
2022-11-24T20:21:58.058Z,92.90
2022-11-24T20:23:30.093Z,92.96
2022-11-24T20:25:01.767Z,93.51
2022-11-24T20:26:36.109Z,93.60
2022-11-24T20:28:07.909Z,93.69
2022-11-24T20:29:45.236Z,93.77
2022-11-24T20:31:21.595Z,93.97
2022-11-24T20:32:53.255Z,93.99
2022-11-24T20:34:26.389Z,93.91
2022-11-24T20:36:12.451Z,93.54
2022-11-24T20:37:44.171Z,93.75
2022-11-24T20:39:22.409Z,93.96
2022-11-24T20:41:04.648Z,93.95